Time;durP1;ratioP1;P1;durP2;ratioP2;P2;SDS_P1;SDS_P2;PMS_P1;PMS_P2;Temp;Humidity;BMP_temperature;BMP_pressure;BME280_temperature;BME280_humidity;BME280_pressure;Samples;Min_cycle;Max_cycle;Signal;HPM_P1;HPM_P2
2023/03/20 00:03:42;;;;;;;4.00;2.33;;;8.40;52.40;;;;;;25912050;22;20447;-43
2023/03/20 00:13:43;;;;;;;3.83;2.05;;;8.50;38.50;;;;;;25912487;22;20051;-42
2023/03/20 00:23:44;;;;;;;3.03;1.58;;;8.50;26.90;;;;;;25901908;22;20027;-42
2023/03/20 00:33:45;;;;;;;4.20;1.23;;;8.70;18.00;;;;;;25863896;22;20011;-42
2023/03/20 00:43:49;;;;;;;7.85;3.00;;;8.60;12.90;;;;;;25908592;22;20015;-42
2023/03/20 00:53:50;;;;;;;6.70;3.25;;;8.60;11.40;;;;;;25869718;22;20018;-43
2023/03/20 01:03:51;;;;;;;2.53;1.30;;;8.50;19.50;;;;;;25895991;22;20023;-42
2023/03/20 01:13:53;;;;;;;4.32;1.80;;;8.40;24.30;;;;;;25900497;22;20022;-42
2023/03/20 01:23:54;;;;;;;5.95;2.13;;;8.50;21.00;;;;;;25903607;22;20471;-42
2023/03/20 01:33:55;;;;;;;3.47;2.22;;;8.40;21.30;;;;;;25895851;22;20363;-42
2023/03/20 01:43:57;;;;;;;5.40;2.28;;;8.40;21.10;;;;;;25905340;22;20017;-42
2023/03/20 01:54:11;;;;;;;8.95;2.70;;;8.20;21.20;;;;;;25901455;22;20024;-42
2023/03/20 02:04:14;;;;;;;7.88;3.03;;;8.00;20.90;;;;;;25895825;22;20841;-42
2023/03/20 02:14:15;;;;;;;7.45;3.70;;;8.00;22.30;;;;;;25904736;22;20016;-42
2023/03/20 02:24:35;;;;;;;5.35;2.30;;;7.90;23.10;;;;;;25907114;22;20023;-42
2023/03/20 02:34:36;;;;;;;7.00;2.75;;;7.90;22.90;;;;;;25901775;22;20018;-42
2023/03/20 02:45:05;;;;;;;8.80;4.43;;;7.80;23.30;;;;;;25909985;22;20343;-42
2023/03/20 02:55:16;;;;;;;6.60;3.53;;;7.70;20.60;;;;;;25892682;22;20008;-42
2023/03/20 03:05:48;;;;;;;10.90;4.25;;;7.60;23.00;;;;;;25905145;22;20019;-42
2023/03/20 03:15:54;;;;;;;21.52;6.47;;;7.60;19.40;;;;;;25909826;22;20023;-42
2023/03/20 03:25:59;;;;;;;10.68;5.28;;;7.50;19.90;;;;;;25911268;22;20043;-42
2023/03/20 03:36:08;;;;;;;11.88;5.97;;;7.40;24.50;;;;;;25907787;22;20050;-42
2023/03/20 03:46:37;;;;;;;9.93;3.97;;;7.50;21.70;;;;;;25910350;22;20575;-42
2023/03/20 03:56:41;;;;;;;10.73;6.53;;;7.40;22.40;;;;;;25901038;22;20014;-42
2023/03/20 04:06:42;;;;;;;10.45;5.03;;;7.30;28.40;;;;;;25902354;22;21109;-42
2023/03/20 04:16:44;;;;;;;7.72;4.38;;;7.30;28.60;;;;;;25903911;22;20562;-42
2023/03/20 04:26:45;;;;;;;12.38;5.28;;;7.30;29.20;;;;;;25903649;22;20070;-42
2023/03/20 04:36:46;;;;;;;10.82;5.60;;;7.20;32.80;;;;;;25905591;22;20456;-42
2023/03/20 04:46:47;;;;;;;8.70;4.40;;;7.20;28.60;;;;;;25890115;22;20373;-42
2023/03/20 04:56:48;;;;;;;17.63;5.75;;;7.20;28.80;;;;;;25910658;22;20011;-42
2023/03/20 05:06:49;;;;;;;9.73;4.75;;;7.20;29.50;;;;;;25894703;22;20015;-42
2023/03/20 05:16:51;;;;;;;10.45;4.75;;;7.00;41.20;;;;;;25904579;22;20016;-42
2023/03/20 05:26:52;;;;;;;11.07;6.28;;;7.10;43.90;;;;;;25902242;22;20028;-42
2023/03/20 05:36:53;;;;;;;16.85;6.45;;;7.10;45.10;;;;;;25891526;22;20007;-42
2023/03/20 05:46:54;;;;;;;12.23;6.18;;;7.10;47.10;;;;;;25894681;22;20332;-42
2023/03/20 05:56:55;;;;;;;9.63;4.28;;;7.10;46.00;;;;;;25896307;22;20008;-42
2023/03/20 06:06:56;;;;;;;10.88;5.13;;;7.20;44.40;;;;;;25898675;22;20029;-42
2023/03/20 06:16:59;;;;;;;14.98;6.30;;;7.20;47.90;;;;;;25886809;22;20467;-42
2023/03/20 06:27:00;;;;;;;11.55;5.18;;;7.20;51.10;;;;;;25904098;22;20023;-42
2023/03/20 06:37:01;;;;;;;8.20;4.85;;;7.20;50.60;;;;;;25908566;22;20026;-42
2023/03/20 06:47:02;;;;;;;13.75;5.63;;;7.20;55.00;;;;;;25914109;22;20041;-42
2023/03/20 06:57:04;;;;;;;10.57;5.65;;;7.20;50.30;;;;;;25903132;22;20094;-42
2023/03/20 07:07:05;;;;;;;10.18;4.47;;;7.30;50.60;;;;;;25908444;22;20015;-42
2023/03/20 07:17:07;;;;;;;8.52;4.38;;;7.30;46.00;;;;;;25916528;22;20020;-42
2023/03/20 07:27:08;;;;;;;14.52;5.97;;;7.40;43.60;;;;;;25910313;22;20021;-42
2023/03/20 07:37:10;;;;;;;10.68;4.93;;;7.40;41.10;;;;;;25912037;22;20746;-42
2023/03/20 07:47:11;;;;;;;9.60;4.07;;;7.50;32.50;;;;;;25931462;22;20119;-42
2023/03/20 07:57:12;;;;;;;7.97;3.42;;;7.60;30.00;;;;;;25932234;22;20508;-43
2023/03/20 08:07:13;;;;;;;6.90;3.35;;;7.70;28.20;;;;;;25930440;22;20396;-42
2023/03/20 08:17:14;;;;;;;6.97;3.35;;;7.80;26.20;;;;;;25922914;22;20091;-42
2023/03/20 08:27:16;;;;;;;7.10;2.78;;;7.80;24.10;;;;;;25927347;22;20102;-43
2023/03/20 08:37:17;;;;;;;8.95;4.07;;;8.00;20.00;;;;;;25923193;22;20016;-42
2023/03/20 08:47:19;;;;;;;9.68;4.15;;;7.90;25.30;;;;;;25891088;22;20123;-42
2023/03/20 08:57:20;;;;;;;9.55;2.80;;;7.90;36.30;;;;;;25925995;22;20012;-42
2023/03/20 09:07:21;;;;;;;9.48;3.63;;;7.90;46.70;;;;;;25929100;22;20401;-42
2023/03/20 09:17:22;;;;;;;8.05;1.75;;;7.90;67.50;;;;;;25917897;22;20521;-42
2023/03/20 09:27:23;;;;;;;13.27;3.95;;;8.00;76.70;;;;;;25924174;22;20412;-42
2023/03/20 09:37:24;;;;;;;4.25;2.13;;;8.00;62.60;;;;;;25925736;22;20097;-42
2023/03/20 09:47:42;;;;;;;7.18;2.78;;;8.10;77.40;;;;;;25922751;22;20087;-42
2023/03/20 09:57:52;;;;;;;5.03;1.92;;;8.40;70.00;;;;;;25930780;22;20043;-41
2023/03/20 10:07:56;;;;;;;7.45;4.03;;;8.40;41.10;;;;;;25933336;22;20016;-41
2023/03/20 10:18:06;;;;;;;8.70;2.90;;;8.50;49.60;;;;;;25924765;22;20078;-42
2023/03/20 10:28:15;;;;;;;5.28;2.50;;;8.70;49.20;;;;;;25934530;22;20102;-41
2023/03/20 10:38:41;;;;;;;5.97;3.60;;;8.60;50.10;;;;;;25929177;22;20083;-42
2023/03/20 10:48:54;;;;;;;8.35;3.58;;;8.70;63.50;;;;;;25929382;22;20424;-42
2023/03/20 10:59:05;;;;;;;5.45;3.30;;;8.70;71.10;;;;;;25935072;22;20099;-42
2023/03/20 11:09:19;;;;;;;8.15;4.05;;;8.60;70.90;;;;;;25921801;22;20019;-42
2023/03/20 11:19:22;;;;;;;11.55;4.65;;;8.70;72.10;;;;;;25927607;22;20663;-42
2023/03/20 11:29:33;;;;;;;8.57;4.00;;;9.00;76.80;;;;;;25934002;22;20777;-42
2023/03/20 11:39:36;;;;;;;7.80;4.55;;;9.10;57.20;;;;;;25917352;22;20415;-42
2023/03/20 11:49:55;;;;;;;9.77;4.72;;;9.00;51.00;;;;;;25910142;22;20012;-41
2023/03/20 11:59:56;;;;;;;9.10;4.93;;;8.90;55.40;;;;;;25910205;22;20043;-41
2023/03/20 12:10:02;;;;;;;15.60;5.65;;;9.00;82.00;;;;;;25911930;22;20012;-41
2023/03/20 12:20:36;;;;;;;10.40;5.18;;;9.00;80.00;;;;;;25911372;22;20024;-41
2023/03/20 12:31:01;;;;;;;11.10;5.63;;;8.90;81.80;;;;;;25907160;22;20007;-41
2023/03/20 12:41:02;;;;;;;9.63;4.93;;;8.80;97.20;;;;;;25832716;22;20022;-41
2023/03/20 12:51:26;;;;;;;12.00;5.10;;;8.80;99.90;;;;;;25910493;22;20011;-41
2023/03/20 13:01:52;;;;;;;11.80;4.90;;;8.70;99.90;;;;;;25910864;22;20407;-41
2023/03/20 13:12:02;;;;;;;15.70;5.72;;;8.70;99.90;;;;;;25906067;22;20030;-40
2023/03/20 13:22:24;;;;;;;11.88;5.05;;;8.70;99.90;;;;;;25905591;22;20030;-40
2023/03/20 13:32:37;;;;;;;12.43;4.25;;;8.70;99.90;;;;;;25902724;22;20012;-40
2023/03/20 13:42:50;;;;;;;10.00;5.05;;;8.70;99.90;;;;;;25909905;22;20016;-40
2023/03/20 13:53:00;;;;;;;9.20;4.57;;;8.70;99.90;;;;;;25909462;22;20325;-40
2023/03/20 14:03:27;;;;;;;13.48;5.25;;;8.70;99.90;;;;;;25903179;22;20011;-40
2023/03/20 14:13:29;;;;;;;7.88;4.15;;;8.70;99.90;;;;;;25908226;22;20700;-40
2023/03/20 14:23:43;;;;;;;9.32;4.50;;;8.70;99.90;;;;;;25909798;22;20023;-40
2023/03/20 14:33:51;;;;;;;12.02;4.72;;;8.70;99.90;;;;;;25870719;22;20015;-40
2023/03/20 14:44:07;;;;;;;7.97;4.57;;;8.70;99.90;;;;;;25908106;22;20022;-40
2023/03/20 14:54:38;;;;;;;8.00;4.15;;;8.80;99.90;;;;;;25908731;22;20166;-41
2023/03/20 15:04:41;;;;;;;11.80;4.50;;;8.80;99.90;;;;;;25894789;22;20015;-41
2023/03/20 15:15:00;;;;;;;11.23;5.47;;;8.90;99.90;;;;;;25919424;22;20086;-41
2023/03/20 15:25:03;;;;;;;11.95;5.07;;;8.90;99.90;;;;;;25926907;22;20038;-40
2023/03/20 15:35:04;;;;;;;10.13;5.78;;;9.00;99.90;;;;;;25909608;22;20087;-41
2023/03/20 15:45:25;;;;;;;12.40;5.63;;;9.00;99.90;;;;;;25915965;22;20016;-41
2023/03/20 15:55:27;;;;;;;15.30;7.28;;;9.10;99.90;;;;;;25911373;22;20534;-41
2023/03/20 16:05:29;;;;;;;12.65;6.80;;;9.10;99.90;;;;;;25908478;22;20530;-41
2023/03/20 16:15:32;;;;;;;9.82;6.25;;;9.20;99.90;;;;;;25917576;22;20023;-41
2023/03/20 16:25:35;;;;;;;14.38;7.68;;;9.30;99.90;;;;;;25919122;22;20417;-41
2023/03/20 16:35:44;;;;;;;18.17;7.50;;;9.20;99.90;;;;;;25914500;22;20003;-41
2023/03/20 16:45:51;;;;;;;9.90;5.40;;;9.20;99.90;;;;;;25908900;22;20015;-41
2023/03/20 16:55:54;;;;;;;;;;;9.20;99.90;;;;;;25920405;22;20011;-41
2023/03/20 17:06:09;;;;;;;8.60;4.75;;;9.30;99.90;;;;;;25909099;22;20425;-41
2023/03/20 17:16:16;;;;;;;12.00;5.15;;;9.30;99.90;;;;;;25915134;22;20351;-41
2023/03/20 17:26:17;;;;;;;9.37;4.90;;;9.30;99.90;;;;;;25902078;22;20029;-41
2023/03/20 17:36:27;;;;;;;6.90;3.65;;;9.40;99.90;;;;;;25885148;22;20022;-41
2023/03/20 17:46:30;;;;;;;8.07;3.40;;;9.50;99.90;;;;;;25909997;22;20337;-41
2023/03/20 17:56:31;;;;;;;6.45;4.28;;;9.50;99.90;;;;;;25909207;22;20438;-41
2023/03/20 18:06:32;;;;;;;7.68;4.20;;;9.60;99.90;;;;;;25911834;22;20058;-41
2023/03/20 18:16:34;;;;;;;8.50;3.40;;;9.60;99.90;;;;;;25889990;22;20022;-40
2023/03/20 18:26:35;;;;;;;9.68;5.60;;;9.60;99.90;;;;;;25893905;22;20019;-41
2023/03/20 18:36:36;;;;;;;9.75;5.45;;;9.60;99.90;;;;;;25897031;22;20018;-40
2023/03/20 18:46:37;;;;;;;9.43;4.55;;;9.70;99.90;;;;;;25921331;22;20090;-40
2023/03/20 18:56:39;;;;;;;10.73;5.20;;;9.70;99.90;;;;;;25932401;22;20079;-41
2023/03/20 19:06:40;;;;;;;7.85;5.50;;;9.70;99.90;;;;;;25926922;22;20012;-41
2023/03/20 19:16:41;;;;;;;5.57;4.15;;;9.80;99.90;;;;;;25920829;22;20023;-41
2023/03/20 19:26:42;;;;;;;7.85;3.97;;;9.80;99.90;;;;;;25890381;22;20448;-41
2023/03/20 19:36:47;;;;;;;7.38;4.10;;;9.80;99.90;;;;;;25921785;22;20022;-41
2023/03/20 19:46:49;;;;;;;8.65;4.75;;;9.70;99.90;;;;;;25915998;22;20441;-41
2023/03/20 19:56:50;;;;;;;12.35;5.15;;;9.80;99.90;;;;;;25905211;22;20323;-41
2023/03/20 20:06:51;;;;;;;9.13;5.80;;;9.80;99.90;;;;;;25907625;22;20015;-41
2023/03/20 20:16:52;;;;;;;8.75;5.03;;;9.80;99.90;;;;;;25911268;22;20015;-40
2023/03/20 20:26:55;;;;;;;8.32;5.47;;;9.80;99.90;;;;;;25913845;22;20024;-41
2023/03/20 20:36:56;;;;;;;7.85;4.95;;;9.80;99.90;;;;;;25922339;22;20087;-41
2023/03/20 20:46:57;;;;;;;10.68;5.47;;;9.90;99.90;;;;;;25916123;22;20019;-41
2023/03/20 20:56:58;;;;;;;7.38;4.50;;;9.80;99.90;;;;;;25910261;22;20453;-41
2023/03/20 21:06:59;;;;;;;7.05;4.47;;;9.90;99.90;;;;;;25906513;22;20039;-41
2023/03/20 21:17:01;;;;;;;15.52;6.13;;;9.80;99.90;;;;;;25905811;22;20027;-41
2023/03/20 21:27:04;;;;;;;9.23;5.07;;;9.80;99.90;;;;;;25897135;22;20026;-41
2023/03/20 21:37:05;;;;;;;10.15;4.95;;;9.80;99.90;;;;;;25910202;22;20455;-41
2023/03/20 21:47:06;;;;;;;8.50;5.20;;;9.80;99.90;;;;;;25907626;22;20025;-41
2023/03/20 21:57:07;;;;;;;8.07;4.60;;;9.80;99.90;;;;;;25912074;22;20463;-41
2023/03/20 22:07:08;;;;;;;8.25;4.90;;;9.80;99.90;;;;;;25906987;22;20021;-41
2023/03/20 22:17:10;;;;;;;12.43;5.47;;;9.80;99.90;;;;;;25907434;22;20019;-41
2023/03/20 22:27:11;;;;;;;11.20;4.97;;;9.80;99.90;;;;;;25905735;22;20024;-41
2023/03/20 22:37:12;;;;;;;9.77;4.32;;;9.70;99.90;;;;;;25908678;22;20606;-41
2023/03/20 22:47:13;;;;;;;8.10;4.70;;;9.70;99.90;;;;;;25903890;22;20452;-41
2023/03/20 22:57:14;;;;;;;7.32;3.38;;;9.70;99.90;;;;;;25905532;22;20019;-41
2023/03/20 23:07:15;;;;;;;5.97;3.53;;;9.70;99.90;;;;;;25902896;22;20453;-41
2023/03/20 23:17:17;;;;;;;7.07;3.75;;;9.70;99.90;;;;;;25916866;22;20050;-41
2023/03/20 23:27:19;;;;;;;7.47;3.47;;;9.60;99.90;;;;;;25915262;22;20028;-41
2023/03/20 23:37:20;;;;;;;7.25;4.30;;;9.60;99.90;;;;;;25911765;22;20033;-41
2023/03/20 23:47:21;;;;;;;8.10;5.07;;;9.60;99.90;;;;;;25910642;22;20016;-41
2023/03/20 23:57:22;;;;;;;7.32;4.38;;;9.60;99.90;;;;;;25905000;22;20015;-41
